Lista wpisów na blogu

Data resetu licznika odwiedzin w danym dniu: 20.01.2022 [00:00]
Data Tytuł Liczba komentarzy Odsłon Dzisiaj
20-01-2022 [08:01] Prorosyjskie głosowanie w Senacie 1 114 108
19-01-2022 [14:05] Oby rok 2022 był czasem chwały Biało-Czerwonego speedwaya! 3 131 11
19-01-2022 [07:57] 9 rad, jak wygrac wybory 9 506 25
18-01-2022 [13:41] Plebiscyty i fenomen żużla oraz nieznane karty z dziejów... 1 211 6
18-01-2022 [08:00] USA-Rosja: widmo finlandyzacji krąży nad Polską... 1 73 2
17-01-2022 [17:41] LGBT – „mięso armatnie” opozycji w walce z władzami RP 2 391 3
17-01-2022 [08:00] USA z największym wzrostem przestępczości od 1960 roku. 4 337 2
16-01-2022 [13:08] Koniec bezkrólewia w siatkówce! 1 143 2
16-01-2022 [08:00] Niedawno temu w Ameryce 0 189 0
15-01-2022 [13:20] Czarnecki na podium! Dziękuję! 1 174 2
15-01-2022 [08:00] O szpilach w Belgii i USA oraz kradzieży Gogola. 1 251 2
14-01-2022 [13:07] Szczyt USA-Rosja czyli zapach finlandyzacji. 8 567 4
14-01-2022 [07:39] „Czarnecko” to widzę. 1 233 1
13-01-2022 [14:20] SKANDYNAWIA BLIŻEJ NATO 8 1,062 3
13-01-2022 [09:15] Nie będzie agresji Rosji na Ukrainę ! 0 120 2
12-01-2022 [13:02] Republikanie w USA pokazali,jak się robi politykę w opozycji 1 305 1
12-01-2022 [13:01] STABILNY KAZACHSTAN W INTERESIE POLSKI I EUROPY 9 438 3
11-01-2022 [15:16] Chrześcijaństwo w Turcji i na Bliskim Wschodzie 1 204 1
11-01-2022 [08:00] Polityka międzynarodowa A.D. 2022: Wybory w USA i Francji 0 364 5
10-01-2022 [13:15] Życzenia na rok 2022 1 263 1
10-01-2022 [09:15] Pamięć o Powstaniach Śląskich sto lat później 1 220 2
09-01-2022 [18:48] POLSKA SÓJKA CZYLI REFORMA UE 1 270 3
09-01-2022 [08:46] Całkowita zmiana tematu 2 403 2
08-01-2022 [12:13] Polska kieruje OBWE 1 260 2
08-01-2022 [08:37] Imigranci skazali minister, Tuska „odór władzy” 3 410 1
07-01-2022 [13:32] By Morze Śródziemne błękitnym było 1 213 1
07-01-2022 [09:16] Co w olimpijskiej trawie piszczy 4 213 1
06-01-2022 [12:39] Szczęśliwy kraj czyli „cudze chwalicie, swego nie znacie” 16 904 4
06-01-2022 [04:13] Żużel na Igrzyskach? 2 145 1
05-01-2022 [16:21] Rosyjska lista płac i najemnicy z UE 5 468 3
05-01-2022 [07:36] Unio! Czas na realną solidarność z Kijowem! 6 395 3
04-01-2022 [12:55] Kluczowy partner strategiczny UE na Bliskim Wschodzie 2 279 3
04-01-2022 [07:34] Gorszy rok 2021 czyli błędy Zachodu 0 153 1
03-01-2022 [13:53] Polityczny rok 2021 – podsumowanie 1 148 2
03-01-2022 [07:27] Biało-Czerwony, medalowy rok 2022? 1 266 1
02-01-2022 [13:13] Co tam, Panie, w Ameryce 4 281 2
02-01-2022 [07:49] Za co lubię USA, za co nie lubię USA 1 245 1
01-01-2022 [13:08] ŻUŻLOWY SEZON 2022 –  jaki będzie? 0 159 1
01-01-2022 [07:57] Jaki był rok 2021? 2 241 1
31-12-2021 [15:52] Żużlowy rok 2021 0 178 2
30-12-2021 [08:40] Sportowy rok 2021 - podsumowanie 2 259 2
29-12-2021 [20:42] Morze Śródziemne pod ochroną 1 294 1
29-12-2021 [09:40] Pewnego razu w Zakopanem 3 262 1
28-12-2021 [07:45] O zimowych igrzyskach w ChRL, ale też o siatkówce 1 229 1
27-12-2021 [08:41] Rok 2021 a polityka zagraniczna 3 254 2
26-12-2021 [15:42] Boże Narodzenie – radość i strach 1 308 2
24-12-2021 [09:17] Prześladowanie chrześcijan i głośne milczenie UE 3 287 2
22-12-2021 [19:56] „Siatka” w Jastrzębiu, filmy sportowe w Zakopanem 2 177 1
21-12-2021 [08:48] Europarlamentarne ostatki w Strasburgu 1 232 2
20-12-2021 [12:58] Johnson, Putin, slogany i gry 13 965 8

Strony